createdAt,value
2022-07-26T00:02:03.357Z,27.50
2022-07-26T00:04:30.392Z,27.50
2022-07-26T00:06:57.400Z,27.50
2022-07-26T00:09:24.250Z,27.50
2022-07-26T00:11:51.589Z,27.20
2022-07-26T00:14:18.833Z,27.00
2022-07-26T00:16:46.036Z,26.90
2022-07-26T00:19:14.175Z,27.00
2022-07-26T00:21:41.081Z,27.00
2022-07-26T00:24:08.747Z,27.00
2022-07-26T00:26:35.766Z,27.00
2022-07-26T00:29:04.838Z,27.10
2022-07-26T00:31:32.388Z,27.30
2022-07-26T00:33:59.257Z,27.50
2022-07-26T00:36:27.541Z,27.40
2022-07-26T00:38:54.384Z,27.40
2022-07-26T00:41:21.315Z,27.30
2022-07-26T00:43:59.197Z,26.80
2022-07-26T00:46:26.763Z,26.90
2022-07-26T00:48:54.031Z,26.80
2022-07-26T00:51:21.556Z,27.00
2022-07-26T00:53:48.939Z,27.20
2022-07-26T00:56:17.107Z,27.30
2022-07-26T00:58:44.752Z,27.30
2022-07-26T01:01:12.229Z,27.30
2022-07-26T01:03:39.941Z,27.20
2022-07-26T01:06:07.265Z,27.00
2022-07-26T01:08:34.169Z,26.50
2022-07-26T01:11:01.278Z,26.60
2022-07-26T01:13:31.902Z,26.80
2022-07-26T01:16:01.653Z,27.10
2022-07-26T01:18:28.510Z,27.10
2022-07-26T01:20:57.823Z,27.10
2022-07-26T01:23:24.630Z,27.00
2022-07-26T01:25:51.541Z,26.80
2022-07-26T01:28:19.520Z,26.60
2022-07-26T01:30:47.835Z,26.50
2022-07-26T01:33:14.647Z,26.30
2022-07-26T01:35:42.112Z,25.80
2022-07-26T01:38:09.007Z,25.40
2022-07-26T01:40:35.890Z,25.10
2022-07-26T01:43:02.773Z,24.90
2022-07-26T01:45:29.713Z,24.90
2022-07-26T01:47:56.498Z,24.60
2022-07-26T01:50:23.569Z,24.50
2022-07-26T01:52:50.378Z,24.40
2022-07-26T01:55:17.320Z,24.30
2022-07-26T01:57:47.221Z,24.20
2022-07-26T02:00:14.755Z,24.10
2022-07-26T02:02:41.665Z,24.20
2022-07-26T02:05:09.916Z,24.20
2022-07-26T02:07:44.594Z,24.20
2022-07-26T02:10:12.736Z,24.20
2022-07-26T02:12:41.456Z,24.20
2022-07-26T02:15:09.767Z,24.10
2022-07-26T02:17:36.771Z,24.30
2022-07-26T02:20:05.067Z,24.20
2022-07-26T02:22:31.978Z,24.00
2022-07-26T02:25:04.510Z,23.90
2022-07-26T02:27:32.024Z,23.90
2022-07-26T02:29:58.862Z,23.90
2022-07-26T02:32:25.992Z,23.70
2022-07-26T02:34:52.826Z,23.50
2022-07-26T02:37:19.695Z,23.50
2022-07-26T02:39:46.576Z,23.40
2022-07-26T02:42:13.465Z,23.20
2022-07-26T02:44:41.559Z,23.20
2022-07-26T02:47:08.404Z,23.10
2022-07-26T02:49:39.656Z,23.00
2022-07-26T02:52:06.494Z,22.90
2022-07-26T02:54:33.322Z,23.00
2022-07-26T02:57:00.331Z,22.90
2022-07-26T02:59:27.205Z,22.90
2022-07-26T03:01:54.064Z,22.70
2022-07-26T03:04:21.578Z,22.80
2022-07-26T03:06:48.397Z,22.80
2022-07-26T03:09:15.209Z,22.70
2022-07-26T03:11:42.286Z,22.70
2022-07-26T03:14:09.826Z,22.70
2022-07-26T03:16:37.123Z,22.90
2022-07-26T03:19:03.990Z,22.90
2022-07-26T03:21:30.921Z,22.70
2022-07-26T03:23:57.845Z,22.70
2022-07-26T03:26:24.626Z,22.70
2022-07-26T03:28:51.509Z,22.70
2022-07-26T03:31:18.369Z,22.70
2022-07-26T03:33:45.244Z,22.80
2022-07-26T03:36:15.382Z,22.90
2022-07-26T03:38:42.737Z,22.90
2022-07-26T03:41:09.550Z,22.90
2022-07-26T03:43:40.658Z,23.00
2022-07-26T03:46:07.554Z,23.20
2022-07-26T03:48:34.528Z,23.20
2022-07-26T03:51:01.342Z,23.20
2022-07-26T03:53:28.235Z,23.00
2022-07-26T03:56:14.550Z,22.80
2022-07-26T03:58:42.034Z,22.80
2022-07-26T04:01:08.943Z,22.80
2022-07-26T04:03:36.273Z,22.60
2022-07-26T04:06:03.272Z,22.60
2022-07-26T04:08:30.579Z,22.70
2022-07-26T04:10:57.382Z,22.80
2022-07-26T04:13:24.304Z,22.50
2022-07-26T04:15:51.440Z,22.50
2022-07-26T04:18:18.352Z,22.50
2022-07-26T04:20:45.346Z,22.60
2022-07-26T04:23:12.807Z,22.60
2022-07-26T04:25:41.365Z,22.70
2022-07-26T04:28:10.070Z,22.70
2022-07-26T04:30:36.965Z,22.50
2022-07-26T04:33:04.632Z,22.50
2022-07-26T04:35:32.554Z,22.60
2022-07-26T04:38:00.157Z,22.50
2022-07-26T04:40:29.291Z,22.50
2022-07-26T04:42:56.322Z,22.70
2022-07-26T04:45:23.167Z,22.60
2022-07-26T04:48:37.965Z,22.40
2022-07-26T04:51:05.008Z,22.40
2022-07-26T04:53:31.982Z,22.50
2022-07-26T04:55:59.055Z,22.60
2022-07-26T04:58:26.170Z,22.70
2022-07-26T05:01:10.306Z,22.60
2022-07-26T05:03:38.959Z,22.50
2022-07-26T05:06:06.000Z,22.60
2022-07-26T05:08:32.911Z,22.40
2022-07-26T05:10:59.788Z,22.50
2022-07-26T23:54:33.715Z,22.50
2022-07-26T23:57:00.558Z,22.50
2022-07-26T23:59:27.458Z,22.60
